sensor_id;sensor_type;location;lat;lon;timestamp;P1;durP1;ratioP1;P2;durP2;ratioP2
4355;SDS011;64374;51.482;7.408;2023-07-28T00:01:33;2.70;;;2.50;;
4355;SDS011;64374;51.482;7.408;2023-07-28T00:04:02;3.60;;;2.90;;
4355;SDS011;64374;51.482;7.408;2023-07-28T00:06:33;4.00;;;3.00;;
4355;SDS011;64374;51.482;7.408;2023-07-28T00:09:02;5.40;;;3.60;;
4355;SDS011;64374;51.482;7.408;2023-07-28T00:11:32;2.90;;;2.40;;
4355;SDS011;64374;51.482;7.408;2023-07-28T00:14:09;2.93;;;2.73;;
4355;SDS011;64374;51.482;7.408;2023-07-28T00:16:37;2.80;;;2.60;;
4355;SDS011;64374;51.482;7.408;2023-07-28T00:19:06;9.37;;;2.90;;
4355;SDS011;64374;51.482;7.408;2023-07-28T00:21:36;3.57;;;2.83;;
4355;SDS011;64374;51.482;7.408;2023-07-28T00:24:04;4.27;;;3.07;;
4355;SDS011;64374;51.482;7.408;2023-07-28T00:26:41;3.03;;;2.80;;
4355;SDS011;64374;51.482;7.408;2023-07-28T00:29:13;5.13;;;2.87;;
4355;SDS011;64374;51.482;7.408;2023-07-28T00:31:42;2.30;;;2.10;;
4355;SDS011;64374;51.482;7.408;2023-07-28T00:34:14;5.33;;;3.20;;
4355;SDS011;64374;51.482;7.408;2023-07-28T00:36:45;2.90;;;2.70;;
4355;SDS011;64374;51.482;7.408;2023-07-28T00:39:13;3.50;;;2.87;;
4355;SDS011;64374;51.482;7.408;2023-07-28T00:41:43;2.67;;;2.37;;
4355;SDS011;64374;51.482;7.408;2023-07-28T00:44:27;3.30;;;2.40;;
4355;SDS011;64374;51.482;7.408;2023-07-28T00:47:03;6.10;;;3.00;;
4355;SDS011;64374;51.482;7.408;2023-07-28T00:49:34;3.40;;;3.10;;
4355;SDS011;64374;51.482;7.408;2023-07-28T00:52:09;3.20;;;2.90;;
4355;SDS011;64374;51.482;7.408;2023-07-28T00:54:38;4.30;;;2.70;;
4355;SDS011;64374;51.482;7.408;2023-07-28T00:57:06;2.63;;;2.40;;
4355;SDS011;64374;51.482;7.408;2023-07-28T00:59:36;2.37;;;2.17;;
4355;SDS011;64374;51.482;7.408;2023-07-28T01:02:04;2.93;;;2.60;;
4355;SDS011;64374;51.482;7.408;2023-07-28T01:04:32;2.50;;;2.30;;
4355;SDS011;64374;51.482;7.408;2023-07-28T01:07:01;6.50;;;2.27;;
4355;SDS011;64374;51.482;7.408;2023-07-28T01:09:38;2.50;;;2.30;;
4355;SDS011;64374;51.482;7.408;2023-07-28T01:12:12;2.53;;;2.33;;
4355;SDS011;64374;51.482;7.408;2023-07-28T01:14:42;3.37;;;2.47;;
4355;SDS011;64374;51.482;7.408;2023-07-28T01:17:10;1.87;;;1.77;;
4355;SDS011;64374;51.482;7.408;2023-07-28T01:19:42;2.13;;;1.70;;
4355;SDS011;64374;51.482;7.408;2023-07-28T01:25:18;4.10;;;2.20;;
4355;SDS011;64374;51.482;7.408;2023-07-28T01:27:53;3.23;;;2.50;;
4355;SDS011;64374;51.482;7.408;2023-07-28T01:30:23;3.60;;;1.80;;
4355;SDS011;64374;51.482;7.408;2023-07-28T01:32:53;5.43;;;1.57;;
4355;SDS011;64374;51.482;7.408;2023-07-28T01:35:23;2.23;;;1.93;;
4355;SDS011;64374;51.482;7.408;2023-07-28T01:37:51;1.60;;;1.47;;
4355;SDS011;64374;51.482;7.408;2023-07-28T01:40:20;2.03;;;1.80;;
4355;SDS011;64374;51.482;7.408;2023-07-28T01:42:48;2.90;;;2.70;;
4355;SDS011;64374;51.482;7.408;2023-07-28T01:45:17;3.83;;;1.90;;
4355;SDS011;64374;51.482;7.408;2023-07-28T01:47:48;1.90;;;1.70;;
4355;SDS011;64374;51.482;7.408;2023-07-28T01:50:16;1.90;;;1.80;;
4355;SDS011;64374;51.482;7.408;2023-07-28T01:52:44;3.37;;;2.10;;
4355;SDS011;64374;51.482;7.408;2023-07-28T01:55:13;2.30;;;2.10;;
4355;SDS011;64374;51.482;7.408;2023-07-28T01:57:49;2.60;;;2.40;;
4355;SDS011;64374;51.482;7.408;2023-07-28T02:00:25;4.07;;;2.50;;
4355;SDS011;64374;51.482;7.408;2023-07-28T02:02:57;2.60;;;2.40;;
4355;SDS011;64374;51.482;7.408;2023-07-28T02:05:28;3.53;;;2.40;;
4355;SDS011;64374;51.482;7.408;2023-07-28T02:07:57;4.60;;;2.13;;
4355;SDS011;64374;51.482;7.408;2023-07-28T02:10:28;2.90;;;2.70;;
4355;SDS011;64374;51.482;7.408;2023-07-28T02:12:56;6.63;;;2.97;;
4355;SDS011;64374;51.482;7.408;2023-07-28T02:15:26;2.10;;;2.00;;
4355;SDS011;64374;51.482;7.408;2023-07-28T02:17:55;2.30;;;2.10;;
4355;SDS011;64374;51.482;7.408;2023-07-28T02:20:25;5.93;;;2.40;;
4355;SDS011;64374;51.482;7.408;2023-07-28T02:22:53;3.00;;;2.40;;
4355;SDS011;64374;51.482;7.408;2023-07-28T02:25:22;3.47;;;1.53;;
4355;SDS011;64374;51.482;7.408;2023-07-28T02:27:53;1.73;;;1.50;;
4355;SDS011;64374;51.482;7.408;2023-07-28T02:30:24;2.77;;;1.73;;
4355;SDS011;64374;51.482;7.408;2023-07-28T02:32:59;2.07;;;1.87;;
4355;SDS011;64374;51.482;7.408;2023-07-28T02:35:27;2.30;;;1.70;;
4355;SDS011;64374;51.482;7.408;2023-07-28T02:37:56;2.00;;;1.60;;
4355;SDS011;64374;51.482;7.408;2023-07-28T02:40:34;2.00;;;1.40;;
4355;SDS011;64374;51.482;7.408;2023-07-28T02:43:10;2.70;;;1.43;;
4355;SDS011;64374;51.482;7.408;2023-07-28T02:45:38;2.20;;;1.53;;
4355;SDS011;64374;51.482;7.408;2023-07-28T02:48:15;3.83;;;1.27;;
4355;SDS011;64374;51.482;7.408;2023-07-28T02:50:45;1.47;;;1.30;;
4355;SDS011;64374;51.482;7.408;2023-07-28T02:53:14;1.60;;;1.50;;
4355;SDS011;64374;51.482;7.408;2023-07-28T02:55:44;2.30;;;1.20;;
4355;SDS011;64374;51.482;7.408;2023-07-28T02:58:14;1.33;;;1.23;;
4355;SDS011;64374;51.482;7.408;2023-07-28T03:00:45;1.97;;;1.27;;
4355;SDS011;64374;51.482;7.408;2023-07-28T03:03:21;1.63;;;1.53;;
4355;SDS011;64374;51.482;7.408;2023-07-28T03:05:52;3.33;;;1.60;;
4355;SDS011;64374;51.482;7.408;2023-07-28T03:08:24;1.30;;;0.90;;
4355;SDS011;64374;51.482;7.408;2023-07-28T03:11:01;3.30;;;1.30;;
4355;SDS011;64374;51.482;7.408;2023-07-28T03:13:29;3.10;;;1.30;;
4355;SDS011;64374;51.482;7.408;2023-07-28T03:15:57;2.33;;;1.07;;
4355;SDS011;64374;51.482;7.408;2023-07-28T03:18:29;1.30;;;1.20;;
4355;SDS011;64374;51.482;7.408;2023-07-28T03:21:00;1.33;;;1.23;;
4355;SDS011;64374;51.482;7.408;2023-07-28T03:23:31;1.30;;;1.20;;
4355;SDS011;64374;51.482;7.408;2023-07-28T03:26:02;1.50;;;1.00;;
4355;SDS011;64374;51.482;7.408;2023-07-28T03:28:30;1.23;;;1.13;;
4355;SDS011;64374;51.482;7.408;2023-07-28T03:31:04;1.73;;;1.00;;
4355;SDS011;64374;51.482;7.408;2023-07-28T03:33:34;1.37;;;1.27;;
4355;SDS011;64374;51.482;7.408;2023-07-28T03:36:02;1.53;;;0.80;;
4355;SDS011;64374;51.482;7.408;2023-07-28T03:38:32;1.40;;;1.30;;
4355;SDS011;64374;51.482;7.408;2023-07-28T03:41:04;0.80;;;0.80;;
4355;SDS011;64374;51.482;7.408;2023-07-28T03:43:38;2.80;;;1.00;;
4355;SDS011;64374;51.482;7.408;2023-07-28T03:46:07;1.57;;;0.80;;
4355;SDS011;64374;51.482;7.408;2023-07-28T03:48:39;0.80;;;0.80;;
4355;SDS011;64374;51.482;7.408;2023-07-28T03:51:07;1.00;;;0.90;;
4355;SDS011;64374;51.482;7.408;2023-07-28T03:53:36;0.97;;;0.90;;
4355;SDS011;64374;51.482;7.408;2023-07-28T03:56:04;1.10;;;1.00;;
4355;SDS011;64374;51.482;7.408;2023-07-28T03:58:33;1.20;;;1.00;;
4355;SDS011;64374;51.482;7.408;2023-07-28T04:01:01;1.00;;;0.90;;
4355;SDS011;64374;51.482;7.408;2023-07-28T04:03:29;1.77;;;0.80;;
4355;SDS011;64374;51.482;7.408;2023-07-28T04:06:03;0.90;;;0.90;;
4355;SDS011;64374;51.482;7.408;2023-07-28T04:08:49;1.00;;;0.73;;
4355;SDS011;64374;51.482;7.408;2023-07-28T04:11:17;0.70;;;0.70;;
4355;SDS011;64374;51.482;7.408;2023-07-28T04:13:45;0.80;;;0.80;;
4355;SDS011;64374;51.482;7.408;2023-07-28T04:16:13;0.80;;;0.80;;
4355;SDS011;64374;51.482;7.408;2023-07-28T04:18:43;1.40;;;0.97;;
4355;SDS011;64374;51.482;7.408;2023-07-28T04:21:15;1.00;;;0.90;;
4355;SDS011;64374;51.482;7.408;2023-07-28T04:23:45;1.13;;;0.93;;
4355;SDS011;64374;51.482;7.408;2023-07-28T04:26:13;1.27;;;0.93;;
4355;SDS011;64374;51.482;7.408;2023-07-28T04:28:42;1.47;;;0.90;;
4355;SDS011;64374;51.482;7.408;2023-07-28T04:31:10;0.83;;;0.83;;
4355;SDS011;64374;51.482;7.408;2023-07-28T04:33:57;0.90;;;0.80;;
4355;SDS011;64374;51.482;7.408;2023-07-28T04:36:42;1.10;;;1.00;;
4355;SDS011;64374;51.482;7.408;2023-07-28T04:39:15;1.00;;;1.00;;
4355;SDS011;64374;51.482;7.408;2023-07-28T04:41:50;0.80;;;0.80;;
4355;SDS011;64374;51.482;7.408;2023-07-28T04:44:21;1.00;;;0.90;;
4355;SDS011;64374;51.482;7.408;2023-07-28T04:46:55;1.90;;;1.03;;
4355;SDS011;64374;51.482;7.408;2023-07-28T04:49:23;0.90;;;0.90;;
4355;SDS011;64374;51.482;7.408;2023-07-28T04:52:08;0.80;;;0.80;;
4355;SDS011;64374;51.482;7.408;2023-07-28T04:54:59;1.67;;;1.03;;
4355;SDS011;64374;51.482;7.408;2023-07-28T04:57:28;2.00;;;1.03;;
4355;SDS011;64374;51.482;7.408;2023-07-28T04:59:56;1.00;;;1.00;;
4355;SDS011;64374;51.482;7.408;2023-07-28T05:02:25;1.23;;;1.13;;
4355;SDS011;64374;51.482;7.408;2023-07-28T05:04:55;0.90;;;0.90;;
4355;SDS011;64374;51.482;7.408;2023-07-28T05:07:25;1.20;;;1.10;;
4355;SDS011;64374;51.482;7.408;2023-07-28T05:10:10;5.37;;;1.00;;
4355;SDS011;64374;51.482;7.408;2023-07-28T05:12:41;0.90;;;0.80;;
4355;SDS011;64374;51.482;7.408;2023-07-28T05:15:09;1.43;;;0.80;;
4355;SDS011;64374;51.482;7.408;2023-07-28T05:17:38;1.27;;;1.17;;
4355;SDS011;64374;51.482;7.408;2023-07-28T05:20:42;1.10;;;1.00;;
4355;SDS011;64374;51.482;7.408;2023-07-28T05:23:16;1.63;;;1.30;;
4355;SDS011;64374;51.482;7.408;2023-07-28T05:25:45;1.97;;;1.23;;
4355;SDS011;64374;51.482;7.408;2023-07-28T05:28:13;1.90;;;1.40;;
4355;SDS011;64374;51.482;7.408;2023-07-28T05:30:43;2.80;;;0.90;;
4355;SDS011;64374;51.482;7.408;2023-07-28T05:33:15;1.40;;;1.03;;
4355;SDS011;64374;51.482;7.408;2023-07-28T05:35:58;1.27;;;1.17;;
4355;SDS011;64374;51.482;7.408;2023-07-28T05:38:32;1.10;;;1.00;;
4355;SDS011;64374;51.482;7.408;2023-07-28T05:41:01;1.90;;;1.07;;
4355;SDS011;64374;51.482;7.408;2023-07-28T05:43:30;1.37;;;1.00;;
4355;SDS011;64374;51.482;7.408;2023-07-28T05:46:01;2.30;;;1.37;;
4355;SDS011;64374;51.482;7.408;2023-07-28T05:48:47;1.30;;;1.20;;
4355;SDS011;64374;51.482;7.408;2023-07-28T05:51:15;3.80;;;1.10;;
4355;SDS011;64374;51.482;7.408;2023-07-28T05:53:47;2.27;;;1.17;;
4355;SDS011;64374;51.482;7.408;2023-07-28T05:56:18;0.80;;;0.80;;
4355;SDS011;64374;51.482;7.408;2023-07-28T05:58:49;2.00;;;1.23;;
4355;SDS011;64374;51.482;7.408;2023-07-28T06:01:20;1.80;;;1.20;;
4355;SDS011;64374;51.482;7.408;2023-07-28T06:04:20;4.23;;;1.40;;
4355;SDS011;64374;51.482;7.408;2023-07-28T06:06:55;5.43;;;1.30;;
4355;SDS011;64374;51.482;7.408;2023-07-28T06:09:24;1.63;;;1.53;;
4355;SDS011;64374;51.482;7.408;2023-07-28T06:12:00;1.97;;;1.40;;
4355;SDS011;64374;51.482;7.408;2023-07-28T06:14:32;2.20;;;1.47;;
4355;SDS011;64374;51.482;7.408;2023-07-28T06:17:03;5.13;;;1.77;;
4355;SDS011;64374;51.482;7.408;2023-07-28T06:19:33;1.90;;;1.80;;
4355;SDS011;64374;51.482;7.408;2023-07-28T06:22:02;2.37;;;2.13;;
4355;SDS011;64374;51.482;7.408;2023-07-28T06:24:49;3.60;;;2.10;;
4355;SDS011;64374;51.482;7.408;2023-07-28T06:27:17;2.57;;;2.10;;
4355;SDS011;64374;51.482;7.408;2023-07-28T06:29:48;4.27;;;2.60;;
4355;SDS011;64374;51.482;7.408;2023-07-28T06:32:16;2.93;;;2.70;;
4355;SDS011;64374;51.482;7.408;2023-07-28T06:34:44;2.77;;;2.57;;
4355;SDS011;64374;51.482;7.408;2023-07-28T06:37:12;3.30;;;3.00;;
4355;SDS011;64374;51.482;7.408;2023-07-28T06:39:44;4.20;;;3.77;;
4355;SDS011;64374;51.482;7.408;2023-07-28T06:42:12;3.60;;;3.30;;
4355;SDS011;64374;51.482;7.408;2023-07-28T06:44:42;5.87;;;4.57;;
4355;SDS011;64374;51.482;7.408;2023-07-28T06:47:10;3.97;;;3.67;;
4355;SDS011;64374;51.482;7.408;2023-07-28T06:49:39;5.07;;;4.00;;
4355;SDS011;64374;51.482;7.408;2023-07-28T06:52:07;4.40;;;3.70;;
4355;SDS011;64374;51.482;7.408;2023-07-28T06:54:38;6.40;;;4.93;;
4355;SDS011;64374;51.482;7.408;2023-07-28T06:57:08;5.30;;;4.50;;
4355;SDS011;64374;51.482;7.408;2023-07-28T06:59:37;5.87;;;4.50;;
4355;SDS011;64374;51.482;7.408;2023-07-28T07:02:05;5.90;;;5.30;;
4355;SDS011;64374;51.482;7.408;2023-07-28T07:04:37;5.00;;;4.23;;
4355;SDS011;64374;51.482;7.408;2023-07-28T07:07:05;4.50;;;3.83;;
4355;SDS011;64374;51.482;7.408;2023-07-28T07:09:36;3.90;;;3.50;;
4355;SDS011;64374;51.482;7.408;2023-07-28T07:12:09;5.77;;;4.37;;
4355;SDS011;64374;51.482;7.408;2023-07-28T07:14:42;4.37;;;3.93;;
4355;SDS011;64374;51.482;7.408;2023-07-28T07:17:13;6.50;;;4.60;;
4355;SDS011;64374;51.482;7.408;2023-07-28T07:19:45;4.90;;;4.43;;
4355;SDS011;64374;51.482;7.408;2023-07-28T07:22:18;4.97;;;4.47;;
4355;SDS011;64374;51.482;7.408;2023-07-28T07:24:46;4.80;;;4.30;;
4355;SDS011;64374;51.482;7.408;2023-07-28T07:27:16;6.00;;;5.10;;
4355;SDS011;64374;51.482;7.408;2023-07-28T07:29:44;5.73;;;5.13;;
4355;SDS011;64374;51.482;7.408;2023-07-28T07:32:13;8.73;;;5.93;;
4355;SDS011;64374;51.482;7.408;2023-07-28T07:34:42;7.30;;;6.20;;
4355;SDS011;64374;51.482;7.408;2023-07-28T07:37:10;7.50;;;6.70;;
4355;SDS011;64374;51.482;7.408;2023-07-28T07:39:46;7.30;;;6.60;;
4355;SDS011;64374;51.482;7.408;2023-07-28T07:42:18;7.03;;;6.33;;
4355;SDS011;64374;51.482;7.408;2023-07-28T07:44:48;8.43;;;7.20;;
4355;SDS011;64374;51.482;7.408;2023-07-28T07:47:16;11.87;;;9.10;;
4355;SDS011;64374;51.482;7.408;2023-07-28T07:49:44;8.10;;;7.03;;
4355;SDS011;64374;51.482;7.408;2023-07-28T07:52:12;6.97;;;6.20;;
4355;SDS011;64374;51.482;7.408;2023-07-28T07:54:41;11.27;;;8.77;;
4355;SDS011;64374;51.482;7.408;2023-07-28T07:57:09;9.20;;;8.20;;
4355;SDS011;64374;51.482;7.408;2023-07-28T07:59:39;7.70;;;7.00;;
4355;SDS011;64374;51.482;7.408;2023-07-28T08:02:09;10.87;;;8.10;;
4355;SDS011;64374;51.482;7.408;2023-07-28T08:04:37;12.23;;;8.33;;
4355;SDS011;64374;51.482;7.408;2023-07-28T08:07:08;9.20;;;7.23;;
4355;SDS011;64374;51.482;7.408;2023-07-28T08:09:36;9.40;;;7.37;;
4355;SDS011;64374;51.482;7.408;2023-07-28T08:12:07;8.80;;;7.77;;
4355;SDS011;64374;51.482;7.408;2023-07-28T08:14:36;12.23;;;8.90;;
4355;SDS011;64374;51.482;7.408;2023-07-28T08:17:06;13.80;;;10.43;;
4355;SDS011;64374;51.482;7.408;2023-07-28T08:19:41;19.17;;;10.90;;
4355;SDS011;64374;51.482;7.408;2023-07-28T08:22:10;17.00;;;14.07;;
4355;SDS011;64374;51.482;7.408;2023-07-28T08:24:38;19.43;;;16.40;;
4355;SDS011;64374;51.482;7.408;2023-07-28T08:27:06;23.33;;;18.47;;
4355;SDS011;64374;51.482;7.408;2023-07-28T08:29:35;20.40;;;17.00;;
4355;SDS011;64374;51.482;7.408;2023-07-28T08:32:11;24.90;;;19.27;;
4355;SDS011;64374;51.482;7.408;2023-07-28T08:34:41;23.53;;;18.17;;
4355;SDS011;64374;51.482;7.408;2023-07-28T08:37:09;23.33;;;18.57;;
4355;SDS011;64374;51.482;7.408;2023-07-28T08:39:42;22.13;;;16.80;;
4355;SDS011;64374;51.482;7.408;2023-07-28T08:42:18;15.10;;;13.50;;
4355;SDS011;64374;51.482;7.408;2023-07-28T08:44:51;14.90;;;11.10;;
4355;SDS011;64374;51.482;7.408;2023-07-28T08:47:23;11.57;;;8.90;;
4355;SDS011;64374;51.482;7.408;2023-07-28T08:49:51;6.30;;;5.70;;
4355;SDS011;64374;51.482;7.408;2023-07-28T08:52:19;4.03;;;3.73;;
4355;SDS011;64374;51.482;7.408;2023-07-28T08:54:55;5.90;;;4.30;;
4355;SDS011;64374;51.482;7.408;2023-07-28T08:57:23;4.60;;;2.80;;
4355;SDS011;64374;51.482;7.408;2023-07-28T08:59:51;3.57;;;3.27;;
4355;SDS011;64374;51.482;7.408;2023-07-28T09:02:23;5.33;;;3.37;;
4355;SDS011;64374;51.482;7.408;2023-07-28T09:04:54;3.80;;;3.10;;
4355;SDS011;64374;51.482;7.408;2023-07-28T09:07:28;3.53;;;2.83;;
4355;SDS011;64374;51.482;7.408;2023-07-28T09:10:04;5.10;;;3.90;;
4355;SDS011;64374;51.482;7.408;2023-07-28T09:12:34;5.90;;;4.70;;
4355;SDS011;64374;51.482;7.408;2023-07-28T09:15:13;3.93;;;3.63;;
4355;SDS011;64374;51.482;7.408;2023-07-28T09:17:44;4.80;;;4.30;;
4355;SDS011;64374;51.482;7.408;2023-07-28T09:20:13;4.60;;;4.23;;
4355;SDS011;64374;51.482;7.408;2023-07-28T09:22:43;5.03;;;4.53;;
4355;SDS011;64374;51.482;7.408;2023-07-28T09:25:16;5.83;;;5.27;;
4355;SDS011;64374;51.482;7.408;2023-07-28T09:27:50;6.10;;;5.50;;
4355;SDS011;64374;51.482;7.408;2023-07-28T09:30:19;7.80;;;7.00;;
4355;SDS011;64374;51.482;7.408;2023-07-28T09:32:52;6.97;;;6.33;;
4355;SDS011;64374;51.482;7.408;2023-07-28T09:35:25;4.20;;;3.83;;
4355;SDS011;64374;51.482;7.408;2023-07-28T09:37:54;3.33;;;3.03;;
4355;SDS011;64374;51.482;7.408;2023-07-28T09:40:23;2.73;;;2.53;;
4355;SDS011;64374;51.482;7.408;2023-07-28T09:42:53;1.63;;;1.50;;
4355;SDS011;64374;51.482;7.408;2023-07-28T09:45:22;1.70;;;1.60;;
4355;SDS011;64374;51.482;7.408;2023-07-28T09:48:09;1.80;;;1.70;;
4355;SDS011;64374;51.482;7.408;2023-07-28T09:50:39;1.40;;;1.30;;
4355;SDS011;64374;51.482;7.408;2023-07-28T09:53:09;8.13;;;1.63;;
4355;SDS011;64374;51.482;7.408;2023-07-28T09:55:40;1.00;;;1.00;;
4355;SDS011;64374;51.482;7.408;2023-07-28T09:58:11;1.40;;;1.30;;
4355;SDS011;64374;51.482;7.408;2023-07-28T10:00:43;2.17;;;1.13;;
4355;SDS011;64374;51.482;7.408;2023-07-28T10:03:22;3.00;;;1.27;;
4355;SDS011;64374;51.482;7.408;2023-07-28T10:05:53;1.67;;;1.47;;
4355;SDS011;64374;51.482;7.408;2023-07-28T10:08:24;2.57;;;1.70;;
4355;SDS011;64374;51.482;7.408;2023-07-28T10:10:53;1.53;;;1.30;;
4355;SDS011;64374;51.482;7.408;2023-07-28T10:13:22;1.70;;;1.50;;
4355;SDS011;64374;51.482;7.408;2023-07-28T10:15:53;1.73;;;1.60;;
4355;SDS011;64374;51.482;7.408;2023-07-28T10:18:23;1.70;;;1.30;;
4355;SDS011;64374;51.482;7.408;2023-07-28T10:20:56;2.27;;;2.07;;
4355;SDS011;64374;51.482;7.408;2023-07-28T10:23:34;2.40;;;2.03;;
4355;SDS011;64374;51.482;7.408;2023-07-28T10:26:03;3.50;;;2.60;;
4355;SDS011;64374;51.482;7.408;2023-07-28T10:28:35;3.80;;;2.67;;
4355;SDS011;64374;51.482;7.408;2023-07-28T10:31:13;2.53;;;2.33;;
4355;SDS011;64374;51.482;7.408;2023-07-28T10:33:50;2.73;;;2.53;;
4355;SDS011;64374;51.482;7.408;2023-07-28T10:36:33;2.57;;;2.37;;
4355;SDS011;64374;51.482;7.408;2023-07-28T10:39:11;2.13;;;1.70;;
4355;SDS011;64374;51.482;7.408;2023-07-28T10:41:59;2.40;;;2.20;;
4355;SDS011;64374;51.482;7.408;2023-07-28T10:44:31;2.00;;;1.80;;
4355;SDS011;64374;51.482;7.408;2023-07-28T10:47:01;2.73;;;2.53;;
4355;SDS011;64374;51.482;7.408;2023-07-28T10:49:31;3.50;;;3.20;;
4355;SDS011;64374;51.482;7.408;2023-07-28T10:52:03;4.60;;;3.23;;
4355;SDS011;64374;51.482;7.408;2023-07-28T10:54:31;8.93;;;2.87;;
4355;SDS011;64374;51.482;7.408;2023-07-28T10:57:01;2.83;;;2.63;;
4355;SDS011;64374;51.482;7.408;2023-07-28T10:59:32;4.43;;;3.47;;
4355;SDS011;64374;51.482;7.408;2023-07-28T11:02:01;7.33;;;6.43;;
4355;SDS011;64374;51.482;7.408;2023-07-28T11:04:30;10.60;;;8.80;;
4355;SDS011;64374;51.482;7.408;2023-07-28T11:06:59;11.43;;;10.30;;
4355;SDS011;64374;51.482;7.408;2023-07-28T11:09:29;12.97;;;9.00;;
4355;SDS011;64374;51.482;7.408;2023-07-28T11:11:58;5.57;;;3.77;;
4355;SDS011;64374;51.482;7.408;2023-07-28T11:14:30;5.43;;;4.00;;
4355;SDS011;64374;51.482;7.408;2023-07-28T11:16:58;5.47;;;3.73;;
4355;SDS011;64374;51.482;7.408;2023-07-28T11:19:38;2.90;;;2.70;;
4355;SDS011;64374;51.482;7.408;2023-07-28T11:22:07;6.80;;;4.77;;
4355;SDS011;64374;51.482;7.408;2023-07-28T11:24:36;3.60;;;2.40;;
4355;SDS011;64374;51.482;7.408;2023-07-28T11:27:04;6.10;;;4.00;;
4355;SDS011;64374;51.482;7.408;2023-07-28T11:29:36;3.23;;;2.30;;
4355;SDS011;64374;51.482;7.408;2023-07-28T11:32:04;2.33;;;2.23;;
4355;SDS011;64374;51.482;7.408;2023-07-28T11:34:36;3.50;;;2.90;;
4355;SDS011;64374;51.482;7.408;2023-07-28T11:37:05;3.23;;;2.03;;
4355;SDS011;64374;51.482;7.408;2023-07-28T11:39:35;3.30;;;2.00;;
4355;SDS011;64374;51.482;7.408;2023-07-28T11:42:08;3.03;;;2.40;;
4355;SDS011;64374;51.482;7.408;2023-07-28T11:44:39;2.10;;;2.00;;
4355;SDS011;64374;51.482;7.408;2023-07-28T11:47:15;2.83;;;2.30;;
4355;SDS011;64374;51.482;7.408;2023-07-28T11:49:49;2.53;;;2.20;;
4355;SDS011;64374;51.482;7.408;2023-07-28T11:52:20;3.83;;;1.90;;
4355;SDS011;64374;51.482;7.408;2023-07-28T11:54:52;4.47;;;2.07;;
4355;SDS011;64374;51.482;7.408;2023-07-28T11:57:29;1.67;;;1.57;;
4355;SDS011;64374;51.482;7.408;2023-07-28T12:00:00;1.77;;;1.67;;
4355;SDS011;64374;51.482;7.408;2023-07-28T12:02:36;1.90;;;1.80;;
4355;SDS011;64374;51.482;7.408;2023-07-28T12:05:14;1.70;;;1.60;;
4355;SDS011;64374;51.482;7.408;2023-07-28T12:07:47;1.50;;;1.40;;
4355;SDS011;64374;51.482;7.408;2023-07-28T12:10:18;1.47;;;1.37;;
4355;SDS011;64374;51.482;7.408;2023-07-28T12:12:51;2.60;;;1.47;;
4355;SDS011;64374;51.482;7.408;2023-07-28T12:15:26;1.67;;;1.57;;
4355;SDS011;64374;51.482;7.408;2023-07-28T12:18:10;2.97;;;2.10;;
4355;SDS011;64374;51.482;7.408;2023-07-28T12:20:44;3.83;;;1.80;;
4355;SDS011;64374;51.482;7.408;2023-07-28T12:23:15;1.83;;;1.73;;
4355;SDS011;64374;51.482;7.408;2023-07-28T12:25:47;2.37;;;1.50;;
4355;SDS011;64374;51.482;7.408;2023-07-28T12:28:16;1.50;;;1.40;;
4355;SDS011;64374;51.482;7.408;2023-07-28T12:30:46;1.43;;;1.30;;
4355;SDS011;64374;51.482;7.408;2023-07-28T12:33:16;1.50;;;1.40;;
4355;SDS011;64374;51.482;7.408;2023-07-28T12:35:50;2.10;;;1.60;;
4355;SDS011;64374;51.482;7.408;2023-07-28T12:38:19;3.03;;;1.50;;
4355;SDS011;64374;51.482;7.408;2023-07-28T12:40:53;1.80;;;1.37;;
4355;SDS011;64374;51.482;7.408;2023-07-28T12:43:26;1.57;;;1.13;;
4355;SDS011;64374;51.482;7.408;2023-07-28T12:45:58;1.17;;;1.13;;
4355;SDS011;64374;51.482;7.408;2023-07-28T12:48:29;2.03;;;1.73;;
4355;SDS011;64374;51.482;7.408;2023-07-28T12:51:09;1.83;;;1.00;;
4355;SDS011;64374;51.482;7.408;2023-07-28T12:53:37;1.80;;;1.00;;
4355;SDS011;64374;51.482;7.408;2023-07-28T12:56:09;1.53;;;1.10;;
4355;SDS011;64374;51.482;7.408;2023-07-28T12:58:48;1.07;;;0.97;;
4355;SDS011;64374;51.482;7.408;2023-07-28T13:01:19;1.77;;;1.50;;
4355;SDS011;64374;51.482;7.408;2023-07-28T13:03:56;1.30;;;1.20;;
4355;SDS011;64374;51.482;7.408;2023-07-28T13:06:26;2.87;;;1.20;;
4355;SDS011;64374;51.482;7.408;2023-07-28T13:08:54;1.63;;;1.30;;
4355;SDS011;64374;51.482;7.408;2023-07-28T13:11:25;2.50;;;1.20;;
4355;SDS011;64374;51.482;7.408;2023-07-28T13:14:13;1.57;;;1.10;;
4355;SDS011;64374;51.482;7.408;2023-07-28T13:16:44;1.20;;;1.10;;
4355;SDS011;64374;51.482;7.408;2023-07-28T13:19:12;1.43;;;0.90;;
4355;SDS011;64374;51.482;7.408;2023-07-28T13:21:45;1.73;;;1.10;;
4355;SDS011;64374;51.482;7.408;2023-07-28T13:24:15;0.90;;;0.90;;
4355;SDS011;64374;51.482;7.408;2023-07-28T13:26:45;1.00;;;1.00;;
4355;SDS011;64374;51.482;7.408;2023-07-28T13:29:14;1.30;;;1.13;;
4355;SDS011;64374;51.482;7.408;2023-07-28T13:31:42;1.57;;;1.47;;
4355;SDS011;64374;51.482;7.408;2023-07-28T13:34:10;1.30;;;1.20;;
4355;SDS011;64374;51.482;7.408;2023-07-28T13:36:54;1.30;;;1.00;;
4355;SDS011;64374;51.482;7.408;2023-07-28T13:39:25;1.27;;;1.00;;
4355;SDS011;64374;51.482;7.408;2023-07-28T13:41:58;1.27;;;1.17;;
4355;SDS011;64374;51.482;7.408;2023-07-28T13:44:26;1.23;;;1.13;;
4355;SDS011;64374;51.482;7.408;2023-07-28T13:46:58;1.40;;;1.30;;
4355;SDS011;64374;51.482;7.408;2023-07-28T13:49:28;1.30;;;1.20;;
4355;SDS011;64374;51.482;7.408;2023-07-28T13:52:09;4.50;;;1.57;;
4355;SDS011;64374;51.482;7.408;2023-07-28T13:54:49;2.87;;;1.53;;
4355;SDS011;64374;51.482;7.408;2023-07-28T13:57:21;1.40;;;1.30;;
4355;SDS011;64374;51.482;7.408;2023-07-28T14:02:43;1.60;;;1.50;;
4355;SDS011;64374;51.482;7.408;2023-07-28T14:05:13;1.80;;;1.70;;
4355;SDS011;64374;51.482;7.408;2023-07-28T14:07:47;1.80;;;1.70;;
4355;SDS011;64374;51.482;7.408;2023-07-28T14:10:16;1.23;;;1.13;;
4355;SDS011;64374;51.482;7.408;2023-07-28T14:12:44;1.67;;;1.57;;
4355;SDS011;64374;51.482;7.408;2023-07-28T14:15:12;2.60;;;1.70;;
4355;SDS011;64374;51.482;7.408;2023-07-28T14:17:41;1.77;;;1.40;;
4355;SDS011;64374;51.482;7.408;2023-07-28T14:20:09;2.03;;;1.90;;
4355;SDS011;64374;51.482;7.408;2023-07-28T14:22:38;1.60;;;1.50;;
4355;SDS011;64374;51.482;7.408;2023-07-28T14:25:08;1.50;;;1.40;;
4355;SDS011;64374;51.482;7.408;2023-07-28T14:27:36;1.70;;;1.60;;
4355;SDS011;64374;51.482;7.408;2023-07-28T14:30:07;1.30;;;1.20;;
4355;SDS011;64374;51.482;7.408;2023-07-28T14:32:42;1.00;;;1.00;;
4355;SDS011;64374;51.482;7.408;2023-07-28T14:35:10;1.03;;;1.03;;
4355;SDS011;64374;51.482;7.408;2023-07-28T14:37:39;4.23;;;1.60;;
4355;SDS011;64374;51.482;7.408;2023-07-28T14:40:09;1.20;;;1.10;;
4355;SDS011;64374;51.482;7.408;2023-07-28T14:42:37;1.00;;;1.00;;
4355;SDS011;64374;51.482;7.408;2023-07-28T14:45:06;1.30;;;1.20;;
4355;SDS011;64374;51.482;7.408;2023-07-28T14:47:35;1.10;;;1.00;;
4355;SDS011;64374;51.482;7.408;2023-07-28T14:50:03;1.33;;;1.13;;
4355;SDS011;64374;51.482;7.408;2023-07-28T14:52:32;1.63;;;1.33;;
4355;SDS011;64374;51.482;7.408;2023-07-28T14:55:02;1.40;;;1.30;;
4355;SDS011;64374;51.482;7.408;2023-07-28T14:57:35;1.90;;;1.00;;
4355;SDS011;64374;51.482;7.408;2023-07-28T15:00:04;1.37;;;1.20;;
4355;SDS011;64374;51.482;7.408;2023-07-28T15:02:33;1.37;;;1.00;;
4355;SDS011;64374;51.482;7.408;2023-07-28T15:05:05;2.90;;;1.20;;
4355;SDS011;64374;51.482;7.408;2023-07-28T15:07:33;1.47;;;1.10;;
4355;SDS011;64374;51.482;7.408;2023-07-28T15:10:04;1.80;;;1.30;;
4355;SDS011;64374;51.482;7.408;2023-07-28T15:12:43;5.00;;;1.07;;
4355;SDS011;64374;51.482;7.408;2023-07-28T15:15:15;2.10;;;0.90;;
4355;SDS011;64374;51.482;7.408;2023-07-28T15:17:43;1.77;;;1.20;;
4355;SDS011;64374;51.482;7.408;2023-07-28T15:20:11;1.63;;;0.90;;
4355;SDS011;64374;51.482;7.408;2023-07-28T15:22:39;1.97;;;1.20;;
4355;SDS011;64374;51.482;7.408;2023-07-28T15:25:08;1.10;;;1.00;;
4355;SDS011;64374;51.482;7.408;2023-07-28T15:27:39;0.90;;;0.80;;
4355;SDS011;64374;51.482;7.408;2023-07-28T15:30:10;2.47;;;1.07;;
4355;SDS011;64374;51.482;7.408;2023-07-28T15:32:39;1.10;;;0.93;;